Time;durP1;ratioP1;P1;durP2;ratioP2;P2;SDS_P1;SDS_P2;PMS_P1;PMS_P2;Temp;Humidity;BMP_temperature;BMP_pressure;BME280_temperature;BME280_humidity;BME280_pressure;Samples;Min_cycle;Max_cycle;Signal;HPM_P1;HPM_P2
2022/06/29 00:01:18;;;;;;;3.42;1.20;;;;;;;27.51;39.73;101674.03;5048594;28;20112;-67
2022/06/29 00:03:44;;;;;;;3.33;1.25;;;;;;;27.52;39.82;101678.44;5047321;28;20471;-67
2022/06/29 00:06:10;;;;;;;1.67;1.17;;;;;;;27.52;39.67;101673.09;5043197;28;20036;-67
2022/06/29 00:08:36;;;;;;;2.17;1.10;;;;;;;27.51;39.69;101673.16;5048376;28;20021;-67
2022/06/29 00:11:01;;;;;;;2.55;1.20;;;;;;;27.50;39.75;101674.09;5048375;28;20033;-67
2022/06/29 00:13:26;;;;;;;1.63;1.25;;;;;;;27.46;39.71;101660.81;5048265;28;20024;-67
2022/06/29 00:15:52;;;;;;;2.33;1.20;;;;;;;27.48;39.79;101663.44;5048248;28;20120;-67
2022/06/29 00:18:18;;;;;;;2.67;1.27;;;;;;;27.48;39.88;101655.41;5048380;28;20029;-67
2022/06/29 00:20:43;;;;;;;2.45;1.20;;;;;;;27.45;39.75;101656.38;5047856;28;20029;-67
2022/06/29 00:23:10;;;;;;;1.80;1.10;;;;;;;27.48;39.80;101657.19;5046767;28;20036;-67
2022/06/29 00:25:35;;;;;;;1.58;1.10;;;;;;;27.46;39.74;101650.09;5045749;28;20108;-67
2022/06/29 00:28:01;;;;;;;2.35;1.30;;;;;;;27.46;39.95;101649.22;5048026;28;20123;-66
2022/06/29 00:30:26;;;;;;;2.65;1.10;;;;;;;27.47;39.78;101650.97;5047887;28;20037;-66
2022/06/29 00:32:52;;;;;;;1.52;1.20;;;;;;;27.41;40.01;101648.56;5048260;28;20097;-66
2022/06/29 00:35:18;;;;;;;1.67;1.20;;;;;;;27.44;39.88;101648.44;5043308;28;20040;-66
2022/06/29 00:37:43;;;;;;;1.73;1.00;;;;;;;27.37;40.00;101631.78;5048245;28;20041;-66
2022/06/29 00:40:09;;;;;;;1.45;1.05;;;;;;;27.42;40.03;101636.91;5048173;28;20029;-66
2022/06/29 00:42:34;;;;;;;1.08;0.93;;;;;;;27.38;40.09;101636.19;5047789;28;20080;-66
2022/06/29 00:45:00;;;;;;;2.38;1.20;;;;;;;27.35;40.15;101633.63;5052230;28;20032;-66
2022/06/29 00:47:25;;;;;;;1.75;1.10;;;;;;;27.37;40.12;101628.22;5050668;28;20505;-66
2022/06/29 00:49:51;;;;;;;2.15;1.20;;;;;;;27.38;40.08;101629.97;5051038;28;20032;-66
2022/06/29 00:52:22;;;;;;;1.70;1.17;;;;;;;27.37;40.21;101625.53;5052172;28;20112;-66
2022/06/29 00:55:03;;;;;;;3.05;1.10;;;;;;;27.40;40.02;101623.59;5048805;28;20375;-66
2022/06/29 00:57:29;;;;;;;2.25;1.10;;;;;;;27.35;40.18;101622.94;5051867;28;20444;-66
2022/06/29 00:59:57;;;;;;;2.45;1.45;;;;;;;27.33;40.30;101619.44;5051471;28;20040;-66
2022/06/29 01:02:24;;;;;;;2.00;1.20;;;;;;;27.32;40.25;101614.19;5051518;28;20047;-66
2022/06/29 01:04:51;;;;;;;2.10;1.02;;;;;;;27.32;39.99;101611.50;5050625;28;20075;-66
2022/06/29 01:07:18;;;;;;;1.50;1.10;;;;;;;27.34;40.14;101614.97;5051159;28;20392;-66
2022/06/29 01:09:45;;;;;;;1.50;1.00;;;;;;;27.32;40.15;101608.81;5051413;28;20033;-66
2022/06/29 01:12:11;;;;;;;3.03;1.02;;;;;;;27.29;40.25;101604.47;5051876;28;20021;-67
2022/06/29 01:14:39;;;;;;;1.02;0.90;;;;;;;27.30;40.17;101605.34;5051627;28;20025;-66
2022/06/29 01:17:05;;;;;;;1.60;1.05;;;;;;;27.30;40.39;101606.19;5051095;28;20032;-66
2022/06/29 01:19:30;;;;;;;1.92;1.05;;;;;;;27.32;40.15;101603.47;5050263;28;20090;-66
2022/06/29 01:22:01;;;;;;;1.40;1.10;;;;;;;27.29;40.20;101599.09;5051340;28;20021;-66
2022/06/29 01:24:27;;;;;;;1.70;1.13;;;;;;;27.29;40.24;101600.91;5051444;28;20471;-66
2022/06/29 01:26:53;;;;;;;2.15;1.00;;;;;;;27.24;40.39;101606.47;5051371;28;20040;-66
2022/06/29 01:29:18;;;;;;;2.00;0.90;;;;;;;27.25;40.11;101605.53;5051249;28;20041;-66
2022/06/29 01:31:44;;;;;;;1.60;1.02;;;;;;;27.29;40.20;101598.22;5049925;28;20040;-67
2022/06/29 01:34:10;;;;;;;1.75;1.17;;;;;;;27.27;40.39;101595.63;5049007;28;20045;-66
2022/06/29 01:36:35;;;;;;;4.20;1.27;;;;;;;27.25;40.23;101600.19;5046901;28;20033;-66
2022/06/29 01:39:01;;;;;;;1.98;1.25;;;;;;;27.26;40.17;101593.91;5051103;28;20524;-66
2022/06/29 01:41:26;;;;;;;1.30;1.02;;;;;;;27.26;40.47;101593.91;5050331;28;20061;-66
2022/06/29 01:43:52;;;;;;;1.65;1.10;;;;;;;27.27;40.27;101594.75;5050724;28;20233;-66
2022/06/29 01:46:17;;;;;;;1.85;1.00;;;;;;;27.26;40.36;101596.59;5051003;28;20467;-66
2022/06/29 01:48:42;;;;;;;2.78;1.10;;;;;;;27.26;40.39;101593.03;5050683;28;20459;-66
2022/06/29 01:51:08;;;;;;;1.42;0.93;;;;;;;27.23;40.29;101599.38;5050699;28;20040;-66
2022/06/29 01:53:33;;;;;;;2.50;1.00;;;;;;;27.23;40.28;101594.03;5049346;28;20028;-66
2022/06/29 01:55:58;;;;;;;1.50;1.00;;;;;;;27.25;40.36;101593.97;5048757;28;20036;-66
2022/06/29 01:58:24;;;;;;;2.10;1.02;;;;;;;27.20;40.49;101591.47;5050690;28;20074;-66
2022/06/29 02:00:49;;;;;;;2.10;1.00;;;;;;;27.24;40.72;101598.44;5050144;28;20597;-66
2022/06/29 02:03:15;;;;;;;1.55;1.00;;;;;;;27.22;40.44;101584.25;5049194;28;20117;-66
2022/06/29 02:05:40;;;;;;;2.75;1.13;;;;;;;27.21;40.44;101582.50;5050521;28;20041;-66
2022/06/29 02:08:06;;;;;;;1.80;1.20;;;;;;;27.18;40.51;101590.69;5050203;28;20036;-66
2022/06/29 02:10:31;;;;;;;2.85;1.10;;;;;;;27.20;40.36;101587.94;5049036;28;20028;-67
2022/06/29 02:12:57;;;;;;;1.52;1.00;;;;;;;27.17;40.43;101594.28;5050256;28;20415;-66
2022/06/29 02:15:23;;;;;;;1.10;0.98;;;;;;;27.15;40.34;101585.44;5048240;28;20052;-67
2022/06/29 02:17:49;;;;;;;1.48;1.00;;;;;;;27.18;40.49;101579.97;5050349;28;20383;-66
2022/06/29 02:20:15;;;;;;;2.20;1.00;;;;;;;27.18;40.50;101579.97;5047173;28;20596;-66
2022/06/29 02:22:40;;;;;;;1.42;0.95;;;;;;;27.14;40.65;101580.19;5048604;28;20163;-66
2022/06/29 02:25:07;;;;;;;1.85;1.10;;;;;;;27.15;40.62;101581.91;5050092;28;20104;-66
2022/06/29 02:27:32;;;;;;;2.38;1.10;;;;;;;27.16;40.55;101571.13;5049666;28;20036;-66
2022/06/29 02:29:58;;;;;;;2.85;0.93;;;;;;;27.17;40.46;101574.69;5050011;28;20033;-66
2022/06/29 02:35:07;;;;;;;1.27;1.10;;;;;;;27.16;40.46;101572.94;5048082;28;20118;-66
2022/06/29 02:37:33;;;;;;;1.38;1.00;;;;;;;27.14;40.56;101569.47;5049502;28;20033;-66
2022/06/29 02:39:58;;;;;;;2.08;1.10;;;;;;;27.11;40.49;101567.78;5049981;28;20064;-66
2022/06/29 02:42:23;;;;;;;1.50;1.10;;;;;;;27.15;40.71;101568.53;5049389;28;20092;-66
2022/06/29 02:44:49;;;;;;;1.48;1.02;;;;;;;27.14;40.41;101566.81;5049634;28;20044;-67
2022/06/29 02:47:14;;;;;;;1.77;1.00;;;;;;;27.11;40.67;101562.44;5049674;28;20055;-66
2022/06/29 02:49:40;;;;;;;1.58;1.00;;;;;;;27.11;40.65;101561.56;5049733;28;20036;-66
2022/06/29 02:52:05;;;;;;;1.60;1.17;;;;;;;27.10;40.60;101555.34;5049477;28;20057;-66
2022/06/29 02:54:31;;;;;;;1.40;0.95;;;;;;;27.09;40.69;101555.41;5045659;28;20048;-66
2022/06/29 02:56:56;;;;;;;1.25;1.00;;;;;;;27.09;40.69;101550.06;5049461;28;20037;-66
2022/06/29 02:59:22;;;;;;;2.28;1.10;;;;;;;27.05;40.51;101549.34;5049637;28;20032;-66
2022/06/29 03:01:48;;;;;;;1.55;1.20;;;;;;;27.06;40.66;101548.41;5049157;28;20033;-66
2022/06/29 03:04:14;;;;;;;1.40;1.00;;;;;;;27.10;40.68;101543.78;5049293;28;20029;-66
2022/06/29 03:06:40;;;;;;;1.45;1.00;;;;;;;27.11;40.55;101537.47;5049450;28;20035;-66
2022/06/29 03:09:05;;;;;;;1.35;0.98;;;;;;;27.05;40.82;101535.94;5046847;28;20391;-66
2022/06/29 03:11:31;;;;;;;1.30;0.98;;;;;;;27.04;40.75;101535.09;5048836;28;20036;-67
2022/06/29 03:13:57;;;;;;;1.70;1.00;;;;;;;27.07;40.67;101541.25;5030969;28;20021;-66
2022/06/29 03:16:22;;;;;;;1.60;1.15;;;;;;;27.06;40.69;101532.34;5049170;28;20089;-66
2022/06/29 03:18:49;;;;;;;1.98;1.05;;;;;;;27.04;40.68;101534.22;5048947;28;20044;-67
2022/06/29 03:21:15;;;;;;;1.30;1.00;;;;;;;27.05;40.57;101527.94;5048912;28;20391;-66
2022/06/29 03:23:40;;;;;;;1.60;1.10;;;;;;;27.00;40.82;101533.50;5049169;28;20029;-66
2022/06/29 03:26:06;;;;;;;1.25;0.95;;;;;;;27.05;40.58;101527.94;5048498;28;20109;-66
2022/06/29 03:28:31;;;;;;;1.52;1.20;;;;;;;27.04;40.63;101523.50;5048835;28;20029;-66
2022/06/29 03:30:56;;;;;;;1.90;1.00;;;;;;;27.03;40.71;101513.72;5047460;28;20049;-66
2022/06/29 03:33:22;;;;;;;1.55;1.08;;;;;;;27.00;40.75;101516.56;5047472;28;20053;-66
2022/06/29 03:35:48;;;;;;;1.58;1.00;;;;;;;27.00;40.78;101505.84;5046803;28;20033;-67
2022/06/29 03:38:13;;;;;;;1.80;1.02;;;;;;;27.01;40.77;101510.28;5048740;28;20016;-66
2022/06/29 03:40:38;;;;;;;1.95;1.10;;;;;;;26.99;40.82;101498.75;5048727;28;20502;-66
2022/06/29 03:43:04;;;;;;;1.30;1.05;;;;;;;26.98;40.83;101500.56;5048652;28;20136;-66
2022/06/29 03:45:30;;;;;;;1.60;1.00;;;;;;;26.98;40.92;101511.25;5047002;28;20053;-66
2022/06/29 03:47:56;;;;;;;1.30;1.00;;;;;;;26.96;40.98;101506.91;5048234;28;20052;-66
2022/06/29 03:50:21;;;;;;;1.10;0.98;;;;;;;26.99;40.77;101504.09;5048523;28;20075;-66
2022/06/29 03:52:49;;;;;;;1.33;1.10;;;;;;;26.98;40.84;101497.88;5048217;28;20033;-66
2022/06/29 03:55:14;;;;;;;1.30;1.00;;;;;;;26.96;40.97;101490.84;5042966;28;20079;-67
2022/06/29 03:57:39;;;;;;;1.23;1.00;;;;;;;26.99;40.76;101491.59;5048305;28;20049;-66
2022/06/29 04:00:06;;;;;;;2.30;1.00;;;;;;;26.98;40.68;101492.53;5048099;28;20083;-66
2022/06/29 04:02:31;;;;;;;1.23;1.00;;;;;;;26.97;40.66;101496.16;5048392;28;20032;-66
2022/06/29 04:04:56;;;;;;;1.42;1.00;;;;;;;26.95;41.05;101494.50;5041950;28;20031;-66
2022/06/29 04:07:23;;;;;;;1.25;1.00;;;;;;;26.96;40.77;101491.72;5047033;28;20110;-66
2022/06/29 04:09:48;;;;;;;1.40;1.00;;;;;;;26.95;40.78;101489.13;5047984;28;20103;-66
2022/06/29 04:12:14;;;;;;;1.00;0.90;;;;;;;26.95;40.88;101487.34;5048155;28;20755;-66
2022/06/29 04:14:39;;;;;;;1.08;0.98;;;;;;;26.97;40.84;101488.13;5048140;28;20024;-66
2022/06/29 04:17:05;;;;;;;1.35;1.02;;;;;;;26.98;40.89;101487.19;5047476;28;20112;-66
2022/06/29 04:19:30;;;;;;;1.30;1.00;;;;;;;26.97;40.58;101481.91;5047836;28;20029;-66
2022/06/29 04:21:55;;;;;;;2.00;1.00;;;;;;;26.97;40.84;101484.56;5048181;28;20052;-66
2022/06/29 04:24:21;;;;;;;1.30;1.00;;;;;;;26.96;40.69;101494.41;5047915;28;20041;-66
2022/06/29 04:26:47;;;;;;;1.70;1.10;;;;;;;26.96;40.83;101488.19;5047940;28;20116;-66
2022/06/29 04:29:13;;;;;;;1.42;1.00;;;;;;;26.96;40.61;101486.38;5047897;28;20155;-67
2022/06/29 04:31:38;;;;;;;1.27;1.00;;;;;;;26.96;40.72;101485.50;5047789;28;20072;-66
2022/06/29 04:34:04;;;;;;;1.33;0.98;;;;;;;26.96;40.80;101486.38;5046499;28;20057;-67
2022/06/29 04:36:29;;;;;;;1.83;1.00;;;;;;;26.96;40.68;101485.50;5043227;28;20119;-66
2022/06/29 04:38:55;;;;;;;1.33;1.00;;;;;;;26.97;40.86;101482.75;5048353;28;20032;-68
2022/06/29 04:41:21;;;;;;;1.40;1.10;;;;;;;26.96;40.80;101480.16;5047898;28;20024;-67
2022/06/29 04:43:48;;;;;;;1.55;1.05;;;;;;;26.98;40.35;101479.16;5046412;28;20454;-67
2022/06/29 04:46:19;;;;;;;1.20;1.00;;;;;;;26.99;40.70;101472.00;5047779;28;20036;-67
2022/06/29 04:48:48;;;;;;;1.40;1.00;;;;;;;26.99;40.52;101475.53;5047745;28;20048;-67
2022/06/29 04:51:15;;;;;;;1.10;1.00;;;;;;;27.00;40.50;101468.38;5048198;28;20025;-66
2022/06/29 04:53:42;;;;;;;1.60;1.00;;;;;;;27.02;40.37;101469.16;5046962;28;20045;-66
2022/06/29 04:56:08;;;;;;;1.50;1.10;;;;;;;27.02;40.41;101475.38;5046930;28;20079;-67
2022/06/29 04:58:33;;;;;;;1.42;1.10;;;;;;;27.00;40.44;101469.25;5043731;28;20454;-66
2022/06/29 05:00:58;;;;;;;1.10;1.00;;;;;;;27.01;40.60;101472.81;5047867;28;20033;-66
2022/06/29 05:03:24;;;;;;;1.13;1.00;;;;;;;27.03;40.30;101470.91;5047110;28;20072;-67
2022/06/29 05:05:49;;;;;;;1.63;1.05;;;;;;;27.03;40.63;101468.22;5047696;28;20421;-66
2022/06/29 05:08:15;;;;;;;2.03;1.20;;;;;;;27.05;40.40;101463.69;5047584;28;20463;-66
2022/06/29 05:10:41;;;;;;;1.50;1.00;;;;;;;27.04;40.38;101460.16;5047790;28;20037;-66
2022/06/29 05:13:10;;;;;;;1.48;1.10;;;;;;;27.04;40.46;101467.31;5047417;28;20029;-66
2022/06/29 05:15:36;;;;;;;1.45;1.00;;;;;;;27.05;40.66;101467.25;5047467;28;20039;-67
2022/06/29 05:18:02;;;;;;;1.63;0.90;;;;;;;27.04;40.58;101468.16;5046513;28;20037;-66
2022/06/29 05:20:27;;;;;;;1.25;1.00;;;;;;;27.06;40.41;101462.75;5047677;28;20038;-67
2022/06/29 05:22:53;;;;;;;1.40;1.05;;;;;;;27.03;40.64;101454.84;5046833;28;20065;-66
2022/06/29 05:25:19;;;;;;;1.60;1.20;;;;;;;27.03;40.50;101454.84;5047607;28;20094;-66
2022/06/29 05:27:44;;;;;;;1.48;1.05;;;;;;;27.00;40.88;101455.88;5047783;28;20527;-66
2022/06/29 05:30:10;;;;;;;1.20;1.00;;;;;;;27.02;40.56;101451.31;5050496;28;20029;-66
2022/06/29 05:32:35;;;;;;;1.45;1.10;;;;;;;27.03;40.90;101462.88;5051207;28;20025;-67
2022/06/29 05:35:01;;;;;;;1.40;1.10;;;;;;;26.99;40.83;101456.81;5046864;28;20039;-66
2022/06/29 05:37:26;;;;;;;1.67;1.00;;;;;;;27.01;40.83;101459.44;5050917;28;20067;-66
2022/06/29 05:39:52;;;;;;;1.45;1.10;;;;;;;27.01;40.89;101459.44;5051076;28;20098;-66
2022/06/29 05:42:18;;;;;;;1.13;1.02;;;;;;;27.01;40.91;101460.31;5050217;28;20107;-66
2022/06/29 05:44:43;;;;;;;1.50;1.10;;;;;;;27.03;40.62;101454.84;5051004;28;20020;-66
2022/06/29 05:47:09;;;;;;;1.17;1.08;;;;;;;27.03;40.90;101449.50;5050865;28;20039;-66
2022/06/29 05:49:35;;;;;;;2.20;1.15;;;;;;;27.10;40.68;101444.72;5050646;28;20131;-67
2022/06/29 05:52:01;;;;;;;1.27;0.95;;;;;;;27.16;40.65;101455.16;5049999;28;20025;-66
2022/06/29 05:54:26;;;;;;;1.42;1.10;;;;;;;27.19;40.41;101445.19;5044368;28;20515;-69
2022/06/29 05:56:52;;;;;;;1.90;1.27;;;;;;;27.23;40.48;101444.09;5051064;28;20112;-66
2022/06/29 05:59:17;;;;;;;1.30;1.08;;;;;;;27.27;40.44;101445.69;5050647;28;20107;-66
2022/06/29 06:01:42;;;;;;;1.60;1.23;;;;;;;27.30;40.51;101445.56;5049484;28;20037;-67
2022/06/29 06:04:08;;;;;;;1.30;1.10;;;;;;;27.34;40.32;101441.78;5049652;28;20037;-66
2022/06/29 06:06:33;;;;;;;1.45;1.10;;;;;;;27.38;40.20;101447.88;5050473;28;20040;-66
2022/06/29 06:09:00;;;;;;;2.35;1.15;;;;;;;28.53;37.92;101439.47;5050764;28;20047;-69
2022/06/29 06:11:25;;;;;;;1.77;1.50;;;;;;;32.19;31.31;101427.31;5050499;28;20033;-68
2022/06/29 06:13:50;;;;;;;2.53;1.27;;;;;;;31.63;31.92;101437.31;5050451;28;20021;-67
2022/06/29 06:16:16;;;;;;;1.70;1.20;;;;;;;29.10;36.66;101441.78;5049838;28;20135;-67
2022/06/29 06:18:41;;;;;;;1.95;1.10;;;;;;;28.18;38.31;101437.69;5050599;28;20033;-67
2022/06/29 06:21:06;;;;;;;1.75;1.15;;;;;;;27.89;39.18;101438.28;5050521;28;20035;-68
2022/06/29 06:23:32;;;;;;;2.67;1.10;;;;;;;27.79;39.70;101433.38;5050063;28;20064;-68
2022/06/29 06:25:57;;;;;;;1.55;1.08;;;;;;;27.74;39.81;101437.22;5050257;28;20072;-69
2022/06/29 06:28:22;;;;;;;2.15;1.10;;;;;;;27.69;40.37;101434.75;5048302;28;20049;-69
2022/06/29 06:30:48;;;;;;;1.60;1.25;;;;;;;27.69;40.14;101440.13;5050008;28;20090;-68
2022/06/29 06:33:13;;;;;;;1.75;1.15;;;;;;;27.70;40.24;101436.50;5049176;28;20036;-68
2022/06/29 06:35:39;;;;;;;2.10;0.98;;;;;;;27.73;40.38;101436.38;5047508;28;20509;-68
2022/06/29 06:38:04;;;;;;;2.75;1.17;;;;;;;27.71;40.17;101438.25;5049188;28;20086;-66
2022/06/29 06:43:14;;;;;;;2.00;1.20;;;;;;;27.71;40.73;101442.72;5049674;28;20559;-66
2022/06/29 06:45:39;;;;;;;4.32;1.30;;;;;;;27.76;40.77;101435.31;5050000;28;20103;-65
2022/06/29 06:48:07;;;;;;;2.47;1.17;;;;;;;27.76;41.15;101436.19;5045639;28;20112;-65
2022/06/29 06:50:32;;;;;;;2.83;1.17;;;;;;;27.78;41.15;101434.31;5049452;28;20040;-65
2022/06/29 06:52:58;;;;;;;1.63;1.20;;;;;;;27.79;41.40;101432.50;5049642;28;20025;-64
2022/06/29 06:55:23;;;;;;;2.53;1.20;;;;;;;27.82;41.44;101433.22;5049285;28;20509;-65
2022/06/29 06:57:48;;;;;;;3.33;1.20;;;;;;;27.84;41.49;101439.38;5049076;28;20467;-66
2022/06/29 07:00:14;;;;;;;1.50;1.20;;;;;;;27.91;42.03;101436.41;5049511;28;20033;-66
2022/06/29 07:02:40;;;;;;;2.00;1.10;;;;;;;27.92;41.66;101435.44;5048080;28;20033;-66
2022/06/29 07:05:06;;;;;;;1.80;1.17;;;;;;;27.94;41.92;101433.53;5049711;28;20064;-66
2022/06/29 07:07:31;;;;;;;4.22;1.10;;;;;;;27.94;41.64;101428.19;5048407;28;20108;-66
2022/06/29 07:09:56;;;;;;;3.55;1.17;;;;;;;27.94;41.62;101434.41;5048126;28;20035;-66
2022/06/29 07:12:22;;;;;;;3.28;1.42;;;;;;;27.99;41.87;101431.53;5049492;28;20032;-66
2022/06/29 07:14:47;;;;;;;2.60;1.20;;;;;;;28.01;41.91;101429.63;5049416;28;20031;-66
2022/06/29 07:17:13;;;;;;;1.63;1.17;;;;;;;28.02;41.62;101423.31;5049602;28;20057;-67
2022/06/29 07:19:38;;;;;;;2.22;1.10;;;;;;;28.03;41.98;101433.09;5048205;28;20036;-66
2022/06/29 07:22:04;;;;;;;2.65;1.10;;;;;;;28.05;41.48;101432.09;5049395;28;20033;-66
2022/06/29 07:24:29;;;;;;;2.35;1.08;;;;;;;28.08;41.84;101423.88;5049153;28;20036;-66
2022/06/29 07:26:56;;;;;;;4.25;1.30;;;;;;;28.09;41.48;101425.63;5047785;28;20033;-66
2022/06/29 07:29:22;;;;;;;2.10;1.15;;;;;;;28.10;41.71;101423.81;5048379;28;20049;-67
2022/06/29 07:31:47;;;;;;;1.40;1.00;;;;;;;28.10;42.06;101429.16;5044130;28;20148;-64
2022/06/29 07:34:12;;;;;;;4.75;1.10;;;;;;;28.12;42.72;101414.72;5043387;28;20139;-69
2022/06/29 07:36:38;;;;;;;4.10;1.10;;;;;;;28.20;42.87;101417.06;5024275;28;20064;-70
2022/06/29 07:39:03;;;;;;;5.90;1.42;;;;;;;28.26;43.91;101411.38;5033826;28;20021;-69
2022/06/29 07:41:29;;;;;;;2.63;1.15;;;;;;;28.30;44.44;101417.47;5036685;28;20056;-73
2022/06/29 07:43:55;;;;;;;4.47;1.30;;;;;;;28.41;43.34;101412.41;5046566;28;20086;-69
2022/06/29 07:46:21;;;;;;;4.95;1.40;;;;;;;28.40;42.89;101418.72;5049023;28;20115;-67
2022/06/29 07:48:46;;;;;;;3.80;1.17;;;;;;;28.39;42.73;101412.47;5050999;28;20029;-67
2022/06/29 07:51:12;;;;;;;3.20;1.30;;;;;;;28.40;42.55;101408.84;5049669;28;20486;-66
2022/06/29 07:53:37;;;;;;;1.92;1.17;;;;;;;28.42;42.76;101406.09;5046812;28;20032;-74
2022/06/29 07:56:03;;;;;;;1.88;1.30;;;;;;;28.59;42.62;101411.44;5039558;28;20632;-73
2022/06/29 07:58:28;;;;;;;2.13;1.20;;;;;;;28.58;41.87;101423.13;5045604;28;20113;-73
2022/06/29 08:00:54;;;;;;;3.40;1.23;;;;;;;28.63;42.12;101405.81;5047451;28;20048;-72
2022/06/29 08:03:19;;;;;;;2.33;1.40;;;;;;;28.61;41.41;101405.03;5039760;28;20048;-73
2022/06/29 08:05:45;;;;;;;3.47;1.42;;;;;;;28.60;41.10;101400.63;5040902;28;20029;-73
2022/06/29 08:08:12;;;;;;;2.50;1.50;;;;;;;28.63;40.45;101407.63;5048265;28;20455;-73
2022/06/29 08:10:37;;;;;;;3.13;1.60;;;;;;;28.66;39.76;101402.13;5039077;28;20371;-72
2022/06/29 08:13:03;;;;;;;3.55;1.70;;;;;;;28.65;39.54;101411.13;5045665;28;20044;-72
2022/06/29 08:15:28;;;;;;;2.75;1.65;;;;;;;28.67;38.96;101411.03;5046821;28;20133;-72
2022/06/29 08:17:54;;;;;;;5.75;1.75;;;;;;;28.65;38.71;101413.78;5046339;28;20029;-73
2022/06/29 08:20:20;;;;;;;3.20;1.83;;;;;;;28.66;38.61;101410.16;5049799;28;20379;-77
2022/06/29 08:22:46;;;;;;;6.68;1.75;;;;;;;28.63;39.20;101404.94;5040746;28;20044;-70
2022/06/29 08:25:12;;;;;;;5.65;1.98;;;;;;;28.72;39.33;101408.97;5047735;28;20021;-73
2022/06/29 08:27:38;;;;;;;4.68;1.98;;;;;;;28.67;38.90;101407.38;5045712;28;20040;-72
2022/06/29 08:30:05;;;;;;;4.72;2.13;;;;;;;28.83;38.11;101410.16;5043735;28;20021;-69
2022/06/29 08:32:30;;;;;;;3.65;2.00;;;;;;;28.85;38.12;101404.72;5047438;28;20036;-69
2022/06/29 08:34:59;;;;;;;6.85;2.10;;;;;;;28.92;38.11;101406.97;5039282;28;20029;-69
2022/06/29 08:37:25;;;;;;;4.45;1.95;;;;;;;28.91;38.06;101407.91;5038649;28;20032;-69
2022/06/29 08:39:51;;;;;;;7.22;2.00;;;;;;;28.99;37.42;101402.13;5047121;28;20032;-69
2022/06/29 08:42:22;;;;;;;5.07;2.00;;;;;;;28.99;37.35;101403.00;5046025;28;20060;-69
2022/06/29 08:44:51;;;;;;;3.28;1.80;;;;;;;29.01;37.18;101410.97;5047601;28;20036;-69
2022/06/29 08:47:17;;;;;;;3.88;2.03;;;;;;;29.09;37.32;101407.88;5047441;28;20029;-69
2022/06/29 08:49:44;;;;;;;7.15;1.90;;;;;;;29.05;37.35;101401.78;5046814;28;20025;-70
2022/06/29 08:52:11;;;;;;;4.78;2.20;;;;;;;29.02;36.78;101402.84;5047231;28;20525;-69
2022/06/29 08:54:39;;;;;;;6.43;2.25;;;;;;;29.05;36.42;101401.78;5044157;28;20102;-67
2022/06/29 08:57:05;;;;;;;5.32;2.10;;;;;;;29.00;37.00;101394.00;5046091;28;20036;-69
2022/06/29 08:59:33;;;;;;;4.63;2.10;;;;;;;28.94;36.85;101399.69;5047353;28;20053;-70
2022/06/29 09:01:59;;;;;;;3.03;2.17;;;;;;;28.93;37.33;101395.28;5047027;28;20031;-70
2022/06/29 09:04:24;;;;;;;6.70;2.47;;;;;;;29.05;37.28;101402.66;5049367;28;20025;-69
2022/06/29 09:06:54;;;;;;;5.93;2.20;;;;;;;28.96;37.24;101394.25;5049174;28;20029;-70
2022/06/29 09:09:19;;;;;;;10.65;2.40;;;;;;;29.07;37.48;101399.03;5050928;28;20072;-70
2022/06/29 09:11:46;;;;;;;6.38;2.20;;;;;;;29.07;36.88;101397.22;5050190;28;20036;-75
2022/06/29 09:14:23;;;;;;;8.10;2.42;;;;;;;29.07;36.52;101401.72;5036691;28;20036;-72
2022/06/29 09:17:02;;;;;;;8.93;2.10;;;;;;;29.05;36.38;101401.78;5050609;28;20040;-72
2022/06/29 09:19:37;;;;;;;6.32;2.40;;;;;;;29.03;36.44;101396.50;5048145;28;20029;-72
2022/06/29 09:22:02;;;;;;;3.65;2.10;;;;;;;29.03;36.41;101382.22;5049285;28;20036;-72
2022/06/29 09:24:30;;;;;;;6.13;2.30;;;;;;;28.98;36.31;101382.47;5050516;28;20033;-77
2022/06/29 09:26:58;;;;;;;4.72;2.30;;;;;;;29.04;36.11;101384.81;5051168;28;20029;-72
2022/06/29 09:29:26;;;;;;;4.78;2.50;;;;;;;29.00;36.15;101379.69;5046224;28;20040;-73
2022/06/29 09:32:06;;;;;;;8.45;2.40;;;;;;;29.04;36.18;101389.31;5040793;28;20067;-73
2022/06/29 09:34:43;;;;;;;8.13;2.30;;;;;;;29.03;36.20;101384.91;5040371;28;20059;-73
2022/06/29 09:37:13;;;;;;;6.40;2.50;;;;;;;28.98;36.38;101379.78;5045212;28;20040;-71
2022/06/29 09:39:42;;;;;;;5.43;2.35;;;;;;;29.04;36.55;101379.44;5048065;28;20125;-69
2022/06/29 09:42:13;;;;;;;5.38;2.50;;;;;;;29.02;36.28;101373.31;5050435;28;20048;-74
2022/06/29 09:44:38;;;;;;;5.68;2.20;;;;;;;29.03;36.61;101376.88;5054004;28;20056;-71
2022/06/29 09:47:09;;;;;;;6.32;2.30;;;;;;;29.00;36.74;101371.66;5053214;28;20467;-70
2022/06/29 09:49:37;;;;;;;7.88;2.40;;;;;;;28.97;36.27;101371.84;5050776;28;20029;-72
2022/06/29 09:52:05;;;;;;;4.90;2.30;;;;;;;28.98;36.80;101371.72;5051640;28;20032;-72
2022/06/29 09:54:46;;;;;;;5.72;2.55;;;;;;;29.11;36.22;101361.16;5050280;28;20025;-72
2022/06/29 09:57:12;;;;;;;8.68;2.50;;;;;;;29.25;36.60;101360.41;5049123;28;20337;-72
2022/06/29 10:02:39;;;;;;;5.80;2.70;;;;;;;29.09;35.72;101364.91;5050342;28;20410;-70
2022/06/29 10:05:09;;;;;;;4.90;2.33;;;;;;;29.20;36.53;101354.44;5048740;28;20029;-70
2022/06/29 10:07:37;;;;;;;4.72;2.00;;;;;;;29.27;36.63;101350.44;5049630;28;20021;-69
2022/06/29 10:10:09;;;;;;;4.32;2.38;;;;;;;29.25;36.39;101352.34;5050747;28;20037;-72
2022/06/29 10:15:38;;;;;;;4.55;2.30;;;;;;;29.31;36.26;101350.19;5049436;28;20051;-70
2022/06/29 10:18:18;;;;;;;6.03;2.47;;;;;;;29.30;35.59;101350.25;5048718;28;20471;-72
2022/06/29 10:20:48;;;;;;;5.22;2.30;;;;;;;29.35;35.99;101346.38;5046140;28;20131;-72
2022/06/29 10:23:42;;;;;;;4.38;2.30;;;;;;;29.31;35.09;101350.19;5049557;28;20033;-72
2022/06/29 10:26:37;;;;;;;4.28;2.40;;;;;;;29.34;35.58;101354.53;5043427;28;20423;-72
2022/06/29 10:29:05;;;;;;;4.57;2.20;;;;;;;29.44;35.42;101350.38;5048450;28;20029;-73
2022/06/29 10:34:30;;;;;;;5.32;2.42;;;;;;;29.57;35.50;101339.78;5046322;28;20040;-69
2022/06/29 10:37:14;;;;;;;6.97;2.40;;;;;;;29.58;35.11;101352.28;5049888;28;20029;-69
2022/06/29 10:39:45;;;;;;;7.32;2.95;;;;;;;29.56;34.69;101340.75;5050726;28;20387;-70
2022/06/29 10:45:15;;;;;;;5.50;2.72;;;;;;;29.46;35.27;101337.69;5043420;28;20170;-72
2022/06/29 10:48:06;;;;;;;4.32;2.50;;;;;;;29.47;35.20;101330.50;5046980;28;20045;-71
2022/06/29 10:50:32;;;;;;;4.30;2.30;;;;;;;29.58;35.17;101334.31;5050733;28;20415;-69
2022/06/29 10:53:03;;;;;;;4.78;2.60;;;;;;;29.44;35.37;101334.25;5052766;28;20055;-69
2022/06/29 10:55:30;;;;;;;4.20;2.50;;;;;;;29.50;35.14;101331.22;5048427;28;20045;-69
2022/06/29 10:57:57;;;;;;;4.75;2.53;;;;;;;29.58;35.05;101336.16;5053556;28;20493;-69
2022/06/29 11:00:25;;;;;;;9.45;2.50;;;;;;;29.48;35.34;101325.06;5043886;28;20029;-69
2022/06/29 11:02:51;;;;;;;8.32;2.60;;;;;;;29.53;35.38;101330.16;5051968;28;20433;-70
2022/06/29 11:05:16;;;;;;;7.20;2.75;;;;;;;29.52;35.57;101325.75;5051774;28;20028;-71
2022/06/29 11:13:24;;;;;;;5.75;2.63;;;;;;;29.64;35.62;101317.81;5051806;28;20048;-67
2022/06/29 11:15:51;;;;;;;3.22;2.47;;;;;;;29.57;36.08;101315.59;5047462;28;20116;-68
2022/06/29 11:18:19;;;;;;;5.93;2.70;;;;;;;29.71;36.19;101315.63;5051030;28;20441;-69
2022/06/29 11:20:50;;;;;;;13.27;2.65;;;;;;;29.69;35.60;101310.38;5050701;28;20093;-71
2022/06/29 11:23:20;;;;;;;10.35;2.70;;;;;;;29.75;35.45;101317.22;5045835;28;20630;-71
2022/06/29 11:25:48;;;;;;;5.00;2.50;;;;;;;29.79;36.06;101314.22;5035999;28;20068;-72
2022/06/29 11:28:17;;;;;;;10.10;2.83;;;;;;;29.70;36.46;101314.75;5048500;28;20084;-71
2022/06/29 11:31:06;;;;;;;7.80;2.75;;;;;;;29.71;35.98;101318.31;5049132;28;20469;-70
2022/06/29 11:33:36;;;;;;;15.20;3.08;;;;;;;29.60;36.96;101307.34;5052902;28;20112;-70
2022/06/29 11:36:23;;;;;;;10.25;2.80;;;;;;;29.48;36.61;101310.75;5038481;28;20475;-71
2022/06/29 11:38:51;;;;;;;8.95;3.20;;;;;;;29.39;36.50;101310.34;5033738;28;20071;-71
2022/06/29 11:44:11;;;;;;;9.27;3.08;;;;;;;29.78;36.07;101304.44;5036539;28;20041;-74
2022/06/29 11:46:37;;;;;;;7.82;3.00;;;;;;;29.82;36.02;101303.31;5048057;28;20750;-76
2022/06/29 11:51:58;;;;;;;8.25;2.92;;;;;;;29.73;36.10;101297.59;5046990;28;20051;-76